sensor_id;sensor_type;location;lat;lon;timestamp;P1;durP1;ratioP1;P2;durP2;ratioP2
74821;SDS011;63353;48.702;8.884;2023-11-19T00:02:23;1999.90;;;999.90;;
74821;SDS011;63353;48.702;8.884;2023-11-19T00:04:49;1999.90;;;999.90;;
74821;SDS011;63353;48.702;8.884;2023-11-19T00:07:14;1999.90;;;999.90;;
74821;SDS011;63353;48.702;8.884;2023-11-19T00:09:40;1999.90;;;999.90;;
74821;SDS011;63353;48.702;8.884;2023-11-19T00:12:07;1999.90;;;999.90;;
74821;SDS011;63353;48.702;8.884;2023-11-19T00:14:35;1999.90;;;999.90;;
74821;SDS011;63353;48.702;8.884;2023-11-19T00:17:01;1999.90;;;999.90;;
74821;SDS011;63353;48.702;8.884;2023-11-19T00:19:29;1999.90;;;999.90;;
74821;SDS011;63353;48.702;8.884;2023-11-19T00:21:54;1999.90;;;999.90;;
74821;SDS011;63353;48.702;8.884;2023-11-19T00:24:21;1999.90;;;999.90;;
74821;SDS011;63353;48.702;8.884;2023-11-19T00:26:46;1999.90;;;999.90;;
74821;SDS011;63353;48.702;8.884;2023-11-19T00:29:12;1999.90;;;999.90;;
74821;SDS011;63353;48.702;8.884;2023-11-19T00:31:39;1999.90;;;999.90;;
74821;SDS011;63353;48.702;8.884;2023-11-19T00:34:04;1999.90;;;999.90;;
74821;SDS011;63353;48.702;8.884;2023-11-19T00:36:31;1999.90;;;999.90;;
74821;SDS011;63353;48.702;8.884;2023-11-19T00:38:58;1999.90;;;999.90;;
74821;SDS011;63353;48.702;8.884;2023-11-19T00:41:23;1999.90;;;999.90;;
74821;SDS011;63353;48.702;8.884;2023-11-19T00:43:50;1999.90;;;999.90;;
74821;SDS011;63353;48.702;8.884;2023-11-19T00:46:16;1999.90;;;999.90;;
74821;SDS011;63353;48.702;8.884;2023-11-19T00:48:41;1999.90;;;999.90;;
74821;SDS011;63353;48.702;8.884;2023-11-19T00:51:07;1999.90;;;999.90;;
74821;SDS011;63353;48.702;8.884;2023-11-19T00:53:33;1999.90;;;999.90;;
74821;SDS011;63353;48.702;8.884;2023-11-19T00:56:01;1999.90;;;999.90;;
74821;SDS011;63353;48.702;8.884;2023-11-19T00:58:27;1999.90;;;999.90;;
74821;SDS011;63353;48.702;8.884;2023-11-19T01:00:52;1999.90;;;999.90;;
74821;SDS011;63353;48.702;8.884;2023-11-19T01:03:18;1999.90;;;999.90;;
74821;SDS011;63353;48.702;8.884;2023-11-19T01:05:44;1999.90;;;999.90;;
74821;SDS011;63353;48.702;8.884;2023-11-19T01:08:11;1999.90;;;999.90;;
74821;SDS011;63353;48.702;8.884;2023-11-19T01:10:37;1999.90;;;999.90;;
74821;SDS011;63353;48.702;8.884;2023-11-19T01:13:03;1999.90;;;999.90;;
74821;SDS011;63353;48.702;8.884;2023-11-19T01:15:30;1999.90;;;999.90;;
74821;SDS011;63353;48.702;8.884;2023-11-19T01:17:56;1999.90;;;999.90;;
74821;SDS011;63353;48.702;8.884;2023-11-19T01:20:22;1999.90;;;999.90;;
74821;SDS011;63353;48.702;8.884;2023-11-19T01:22:48;1999.90;;;999.90;;
74821;SDS011;63353;48.702;8.884;2023-11-19T01:25:14;1999.90;;;999.90;;
74821;SDS011;63353;48.702;8.884;2023-11-19T01:27:40;1999.90;;;999.90;;
74821;SDS011;63353;48.702;8.884;2023-11-19T01:30:06;1999.90;;;999.90;;
74821;SDS011;63353;48.702;8.884;2023-11-19T01:32:37;1999.90;;;999.90;;
74821;SDS011;63353;48.702;8.884;2023-11-19T01:35:03;1999.90;;;999.90;;
74821;SDS011;63353;48.702;8.884;2023-11-19T01:37:29;1999.90;;;999.90;;
74821;SDS011;63353;48.702;8.884;2023-11-19T01:39:56;1999.90;;;999.90;;
74821;SDS011;63353;48.702;8.884;2023-11-19T01:42:22;1999.90;;;999.90;;
74821;SDS011;63353;48.702;8.884;2023-11-19T01:44:57;1999.90;;;999.90;;
74821;SDS011;63353;48.702;8.884;2023-11-19T01:47:24;1999.90;;;999.90;;
74821;SDS011;63353;48.702;8.884;2023-11-19T01:49:51;1999.90;;;999.90;;
74821;SDS011;63353;48.702;8.884;2023-11-19T01:52:17;1999.90;;;999.90;;
74821;SDS011;63353;48.702;8.884;2023-11-19T01:54:43;1999.90;;;999.90;;
74821;SDS011;63353;48.702;8.884;2023-11-19T01:57:10;1999.90;;;999.90;;
74821;SDS011;63353;48.702;8.884;2023-11-19T01:59:36;1999.90;;;999.90;;
74821;SDS011;63353;48.702;8.884;2023-11-19T02:02:03;1999.90;;;999.90;;
74821;SDS011;63353;48.702;8.884;2023-11-19T02:04:31;1999.90;;;999.90;;
74821;SDS011;63353;48.702;8.884;2023-11-19T02:06:57;1999.90;;;999.90;;
74821;SDS011;63353;48.702;8.884;2023-11-19T02:09:23;1999.90;;;999.90;;
74821;SDS011;63353;48.702;8.884;2023-11-19T02:11:49;1999.90;;;999.90;;
74821;SDS011;63353;48.702;8.884;2023-11-19T02:14:16;1999.90;;;999.90;;
74821;SDS011;63353;48.702;8.884;2023-11-19T02:16:43;1999.90;;;999.90;;
74821;SDS011;63353;48.702;8.884;2023-11-19T02:19:09;1999.90;;;999.90;;
74821;SDS011;63353;48.702;8.884;2023-11-19T02:21:36;1999.90;;;999.90;;
74821;SDS011;63353;48.702;8.884;2023-11-19T02:24:03;1999.90;;;999.90;;
74821;SDS011;63353;48.702;8.884;2023-11-19T02:29:21;1999.90;;;999.90;;
74821;SDS011;63353;48.702;8.884;2023-11-19T02:31:47;1999.90;;;999.90;;
74821;SDS011;63353;48.702;8.884;2023-11-19T02:34:12;1999.90;;;999.90;;
74821;SDS011;63353;48.702;8.884;2023-11-19T02:36:38;1999.90;;;999.90;;
74821;SDS011;63353;48.702;8.884;2023-11-19T02:39:07;1999.90;;;999.90;;
74821;SDS011;63353;48.702;8.884;2023-11-19T02:41:36;1999.90;;;999.90;;
74821;SDS011;63353;48.702;8.884;2023-11-19T02:44:04;1999.90;;;999.90;;
74821;SDS011;63353;48.702;8.884;2023-11-19T02:46:31;1999.90;;;999.90;;
74821;SDS011;63353;48.702;8.884;2023-11-19T02:48:57;1999.90;;;999.90;;
74821;SDS011;63353;48.702;8.884;2023-11-19T02:51:22;1999.90;;;999.90;;
74821;SDS011;63353;48.702;8.884;2023-11-19T02:53:48;1999.90;;;999.90;;
74821;SDS011;63353;48.702;8.884;2023-11-19T02:56:14;1999.90;;;999.90;;
74821;SDS011;63353;48.702;8.884;2023-11-19T02:58:50;1999.90;;;999.90;;
74821;SDS011;63353;48.702;8.884;2023-11-19T03:01:25;1999.90;;;999.90;;
74821;SDS011;63353;48.702;8.884;2023-11-19T03:03:55;1999.90;;;999.90;;
74821;SDS011;63353;48.702;8.884;2023-11-19T03:06:22;1999.90;;;999.90;;
74821;SDS011;63353;48.702;8.884;2023-11-19T03:08:49;1999.90;;;999.90;;
74821;SDS011;63353;48.702;8.884;2023-11-19T03:11:15;1999.90;;;999.90;;
74821;SDS011;63353;48.702;8.884;2023-11-19T03:13:41;1999.90;;;999.90;;
74821;SDS011;63353;48.702;8.884;2023-11-19T03:16:07;1999.90;;;999.90;;
74821;SDS011;63353;48.702;8.884;2023-11-19T03:18:33;1999.90;;;999.90;;
74821;SDS011;63353;48.702;8.884;2023-11-19T03:20:58;1999.90;;;999.90;;
74821;SDS011;63353;48.702;8.884;2023-11-19T03:23:24;1999.90;;;999.90;;
74821;SDS011;63353;48.702;8.884;2023-11-19T03:25:52;1999.90;;;999.90;;
74821;SDS011;63353;48.702;8.884;2023-11-19T03:28:18;1999.90;;;999.90;;
74821;SDS011;63353;48.702;8.884;2023-11-19T03:30:44;1999.90;;;999.90;;
74821;SDS011;63353;48.702;8.884;2023-11-19T03:33:09;1999.90;;;999.90;;
74821;SDS011;63353;48.702;8.884;2023-11-19T03:35:35;1999.90;;;999.90;;
74821;SDS011;63353;48.702;8.884;2023-11-19T03:38:01;1999.90;;;999.90;;
74821;SDS011;63353;48.702;8.884;2023-11-19T03:40:27;1999.90;;;999.90;;
74821;SDS011;63353;48.702;8.884;2023-11-19T03:42:53;1999.90;;;999.90;;
74821;SDS011;63353;48.702;8.884;2023-11-19T03:45:20;1999.90;;;999.90;;
74821;SDS011;63353;48.702;8.884;2023-11-19T03:47:46;1999.90;;;999.90;;
74821;SDS011;63353;48.702;8.884;2023-11-19T03:50:11;1999.90;;;999.90;;
74821;SDS011;63353;48.702;8.884;2023-11-19T03:52:37;1999.90;;;999.90;;
74821;SDS011;63353;48.702;8.884;2023-11-19T03:55:03;1999.90;;;999.90;;
74821;SDS011;63353;48.702;8.884;2023-11-19T03:57:30;1999.90;;;999.90;;
74821;SDS011;63353;48.702;8.884;2023-11-19T03:59:56;1999.90;;;999.90;;
74821;SDS011;63353;48.702;8.884;2023-11-19T04:02:23;1999.90;;;999.90;;
74821;SDS011;63353;48.702;8.884;2023-11-19T04:04:52;1999.90;;;999.90;;
74821;SDS011;63353;48.702;8.884;2023-11-19T04:07:18;1999.90;;;999.90;;
74821;SDS011;63353;48.702;8.884;2023-11-19T04:09:44;1999.90;;;999.90;;
74821;SDS011;63353;48.702;8.884;2023-11-19T04:12:11;1999.90;;;999.90;;
74821;SDS011;63353;48.702;8.884;2023-11-19T04:14:37;1999.90;;;999.90;;
74821;SDS011;63353;48.702;8.884;2023-11-19T04:17:02;1999.90;;;999.90;;
74821;SDS011;63353;48.702;8.884;2023-11-19T04:19:28;1999.90;;;999.90;;
74821;SDS011;63353;48.702;8.884;2023-11-19T04:21:54;1999.90;;;999.90;;
74821;SDS011;63353;48.702;8.884;2023-11-19T04:24:19;1999.90;;;999.90;;
74821;SDS011;63353;48.702;8.884;2023-11-19T04:26:45;1999.90;;;999.90;;
74821;SDS011;63353;48.702;8.884;2023-11-19T04:29:12;1999.90;;;999.90;;
74821;SDS011;63353;48.702;8.884;2023-11-19T04:31:40;1999.90;;;999.90;;
74821;SDS011;63353;48.702;8.884;2023-11-19T04:34:06;1999.90;;;999.90;;
74821;SDS011;63353;48.702;8.884;2023-11-19T04:36:32;1999.90;;;999.90;;
74821;SDS011;63353;48.702;8.884;2023-11-19T04:38:58;1999.90;;;999.90;;
74821;SDS011;63353;48.702;8.884;2023-11-19T04:41:25;1999.90;;;999.90;;
74821;SDS011;63353;48.702;8.884;2023-11-19T04:43:55;1999.90;;;999.90;;
74821;SDS011;63353;48.702;8.884;2023-11-19T04:46:20;1999.90;;;999.90;;
74821;SDS011;63353;48.702;8.884;2023-11-19T04:48:46;1999.90;;;999.90;;
74821;SDS011;63353;48.702;8.884;2023-11-19T04:51:12;1999.90;;;999.90;;
74821;SDS011;63353;48.702;8.884;2023-11-19T04:53:38;1999.90;;;999.90;;
74821;SDS011;63353;48.702;8.884;2023-11-19T04:56:10;1999.90;;;999.90;;
74821;SDS011;63353;48.702;8.884;2023-11-19T04:58:37;1999.90;;;999.90;;
74821;SDS011;63353;48.702;8.884;2023-11-19T05:01:03;1999.90;;;999.90;;
74821;SDS011;63353;48.702;8.884;2023-11-19T05:03:30;1999.90;;;999.90;;
74821;SDS011;63353;48.702;8.884;2023-11-19T05:05:56;1999.90;;;999.90;;
74821;SDS011;63353;48.702;8.884;2023-11-19T05:08:22;1999.90;;;999.90;;
74821;SDS011;63353;48.702;8.884;2023-11-19T05:10:48;1999.90;;;999.90;;
74821;SDS011;63353;48.702;8.884;2023-11-19T05:13:14;1999.90;;;999.90;;
74821;SDS011;63353;48.702;8.884;2023-11-19T05:15:40;1999.90;;;999.90;;
74821;SDS011;63353;48.702;8.884;2023-11-19T05:18:06;1999.90;;;999.90;;
74821;SDS011;63353;48.702;8.884;2023-11-19T05:20:32;1999.90;;;999.90;;
74821;SDS011;63353;48.702;8.884;2023-11-19T05:22:57;1999.90;;;999.90;;
74821;SDS011;63353;48.702;8.884;2023-11-19T05:25:25;1999.90;;;999.90;;
74821;SDS011;63353;48.702;8.884;2023-11-19T05:27:51;1999.90;;;999.90;;
74821;SDS011;63353;48.702;8.884;2023-11-19T05:30:17;1999.90;;;999.90;;
74821;SDS011;63353;48.702;8.884;2023-11-19T05:32:43;1999.90;;;999.90;;
74821;SDS011;63353;48.702;8.884;2023-11-19T05:35:09;1999.90;;;999.90;;
74821;SDS011;63353;48.702;8.884;2023-11-19T05:37:34;1999.90;;;999.90;;
74821;SDS011;63353;48.702;8.884;2023-11-19T05:40:00;1999.90;;;999.90;;
74821;SDS011;63353;48.702;8.884;2023-11-19T05:42:28;1999.90;;;999.90;;
74821;SDS011;63353;48.702;8.884;2023-11-19T05:44:54;1999.90;;;999.90;;
74821;SDS011;63353;48.702;8.884;2023-11-19T05:47:19;1999.90;;;999.90;;
74821;SDS011;63353;48.702;8.884;2023-11-19T05:49:45;1999.90;;;999.90;;
74821;SDS011;63353;48.702;8.884;2023-11-19T05:52:11;1999.90;;;999.90;;
74821;SDS011;63353;48.702;8.884;2023-11-19T05:54:37;1999.90;;;999.90;;
74821;SDS011;63353;48.702;8.884;2023-11-19T05:57:06;1999.90;;;999.90;;
74821;SDS011;63353;48.702;8.884;2023-11-19T05:59:34;1999.90;;;999.90;;
74821;SDS011;63353;48.702;8.884;2023-11-19T06:02:01;1999.90;;;999.90;;
74821;SDS011;63353;48.702;8.884;2023-11-19T06:04:27;1999.90;;;999.90;;
74821;SDS011;63353;48.702;8.884;2023-11-19T06:06:53;1999.90;;;999.90;;
74821;SDS011;63353;48.702;8.884;2023-11-19T06:09:22;1999.90;;;999.90;;
74821;SDS011;63353;48.702;8.884;2023-11-19T06:11:48;1999.90;;;999.90;;
74821;SDS011;63353;48.702;8.884;2023-11-19T06:14:16;1999.90;;;999.90;;
74821;SDS011;63353;48.702;8.884;2023-11-19T06:16:41;1999.90;;;999.90;;
74821;SDS011;63353;48.702;8.884;2023-11-19T06:19:07;1999.90;;;999.90;;
74821;SDS011;63353;48.702;8.884;2023-11-19T06:21:33;1999.90;;;999.90;;
74821;SDS011;63353;48.702;8.884;2023-11-19T06:24:00;1999.90;;;999.90;;
74821;SDS011;63353;48.702;8.884;2023-11-19T06:26:26;1999.90;;;999.90;;
74821;SDS011;63353;48.702;8.884;2023-11-19T06:28:52;1999.90;;;999.90;;
74821;SDS011;63353;48.702;8.884;2023-11-19T06:31:18;1999.90;;;999.90;;
74821;SDS011;63353;48.702;8.884;2023-11-19T06:33:43;1999.90;;;999.90;;
74821;SDS011;63353;48.702;8.884;2023-11-19T06:36:13;1999.90;;;999.90;;
74821;SDS011;63353;48.702;8.884;2023-11-19T06:38:41;1999.90;;;999.90;;
74821;SDS011;63353;48.702;8.884;2023-11-19T06:41:07;1999.90;;;999.90;;
74821;SDS011;63353;48.702;8.884;2023-11-19T06:43:34;1999.90;;;999.90;;
74821;SDS011;63353;48.702;8.884;2023-11-19T06:46:00;1999.90;;;999.90;;
74821;SDS011;63353;48.702;8.884;2023-11-19T06:48:26;1999.90;;;999.90;;
74821;SDS011;63353;48.702;8.884;2023-11-19T06:50:52;1999.90;;;999.90;;
74821;SDS011;63353;48.702;8.884;2023-11-19T06:53:18;1999.90;;;999.90;;
74821;SDS011;63353;48.702;8.884;2023-11-19T06:55:44;1999.90;;;999.90;;
74821;SDS011;63353;48.702;8.884;2023-11-19T06:58:10;1999.90;;;999.90;;
74821;SDS011;63353;48.702;8.884;2023-11-19T07:00:37;1999.90;;;999.90;;
74821;SDS011;63353;48.702;8.884;2023-11-19T07:03:02;1999.90;;;999.90;;
74821;SDS011;63353;48.702;8.884;2023-11-19T07:05:28;1999.90;;;999.90;;
74821;SDS011;63353;48.702;8.884;2023-11-19T07:07:55;1999.90;;;999.90;;
74821;SDS011;63353;48.702;8.884;2023-11-19T07:10:20;1999.90;;;999.90;;
74821;SDS011;63353;48.702;8.884;2023-11-19T07:12:46;1999.90;;;999.90;;
74821;SDS011;63353;48.702;8.884;2023-11-19T07:15:12;1999.90;;;999.90;;
74821;SDS011;63353;48.702;8.884;2023-11-19T07:17:39;1999.90;;;999.90;;
74821;SDS011;63353;48.702;8.884;2023-11-19T07:20:08;1999.90;;;999.90;;
74821;SDS011;63353;48.702;8.884;2023-11-19T07:22:38;1999.90;;;999.90;;
74821;SDS011;63353;48.702;8.884;2023-11-19T07:25:04;1999.90;;;999.90;;
74821;SDS011;63353;48.702;8.884;2023-11-19T07:27:29;1999.90;;;999.90;;
74821;SDS011;63353;48.702;8.884;2023-11-19T07:29:55;1999.90;;;999.90;;
74821;SDS011;63353;48.702;8.884;2023-11-19T07:32:21;1999.90;;;999.90;;
74821;SDS011;63353;48.702;8.884;2023-11-19T07:34:46;1999.90;;;999.90;;
74821;SDS011;63353;48.702;8.884;2023-11-19T07:37:12;1999.90;;;999.90;;
74821;SDS011;63353;48.702;8.884;2023-11-19T07:39:39;1999.90;;;999.90;;
74821;SDS011;63353;48.702;8.884;2023-11-19T07:42:06;1999.90;;;999.90;;
74821;SDS011;63353;48.702;8.884;2023-11-19T07:44:31;1999.90;;;999.90;;
74821;SDS011;63353;48.702;8.884;2023-11-19T07:46:57;1999.90;;;999.90;;
74821;SDS011;63353;48.702;8.884;2023-11-19T07:49:23;1999.90;;;999.90;;
74821;SDS011;63353;48.702;8.884;2023-11-19T07:51:49;1999.90;;;999.90;;
74821;SDS011;63353;48.702;8.884;2023-11-19T07:54:16;1999.90;;;999.90;;
74821;SDS011;63353;48.702;8.884;2023-11-19T07:56:42;1999.90;;;999.90;;
74821;SDS011;63353;48.702;8.884;2023-11-19T07:59:09;1999.90;;;999.90;;
74821;SDS011;63353;48.702;8.884;2023-11-19T08:01:35;1999.90;;;999.90;;
74821;SDS011;63353;48.702;8.884;2023-11-19T08:04:00;1999.90;;;999.90;;
74821;SDS011;63353;48.702;8.884;2023-11-19T08:06:26;1999.90;;;999.90;;
74821;SDS011;63353;48.702;8.884;2023-11-19T08:08:52;1999.90;;;999.90;;
74821;SDS011;63353;48.702;8.884;2023-11-19T08:11:18;1999.90;;;999.90;;
74821;SDS011;63353;48.702;8.884;2023-11-19T08:13:44;1999.90;;;999.90;;
74821;SDS011;63353;48.702;8.884;2023-11-19T08:16:10;1999.90;;;999.90;;
74821;SDS011;63353;48.702;8.884;2023-11-19T08:18:36;1999.90;;;999.90;;
74821;SDS011;63353;48.702;8.884;2023-11-19T08:21:02;1999.90;;;999.90;;
74821;SDS011;63353;48.702;8.884;2023-11-19T08:23:29;1999.90;;;999.90;;
74821;SDS011;63353;48.702;8.884;2023-11-19T08:25:55;1999.90;;;999.90;;
74821;SDS011;63353;48.702;8.884;2023-11-19T08:28:21;1999.90;;;999.90;;
74821;SDS011;63353;48.702;8.884;2023-11-19T08:30:46;1999.90;;;999.90;;
74821;SDS011;63353;48.702;8.884;2023-11-19T08:33:12;1999.90;;;999.90;;
74821;SDS011;63353;48.702;8.884;2023-11-19T08:35:38;1999.90;;;999.90;;
74821;SDS011;63353;48.702;8.884;2023-11-19T08:38:03;1999.90;;;999.90;;
74821;SDS011;63353;48.702;8.884;2023-11-19T08:40:29;1999.90;;;999.90;;
74821;SDS011;63353;48.702;8.884;2023-11-19T08:42:55;1999.90;;;999.90;;
74821;SDS011;63353;48.702;8.884;2023-11-19T08:45:21;1999.90;;;999.90;;
74821;SDS011;63353;48.702;8.884;2023-11-19T08:47:47;1999.90;;;999.90;;
74821;SDS011;63353;48.702;8.884;2023-11-19T08:50:12;1999.90;;;999.90;;
74821;SDS011;63353;48.702;8.884;2023-11-19T08:52:38;1999.90;;;999.90;;
74821;SDS011;63353;48.702;8.884;2023-11-19T08:55:04;1999.90;;;999.90;;
74821;SDS011;63353;48.702;8.884;2023-11-19T08:57:34;1999.90;;;999.90;;
74821;SDS011;63353;48.702;8.884;2023-11-19T09:00:00;1999.90;;;999.90;;
74821;SDS011;63353;48.702;8.884;2023-11-19T09:02:26;1999.90;;;999.90;;
74821;SDS011;63353;48.702;8.884;2023-11-19T09:04:52;1999.90;;;999.90;;
74821;SDS011;63353;48.702;8.884;2023-11-19T09:07:17;1999.90;;;999.90;;
74821;SDS011;63353;48.702;8.884;2023-11-19T09:09:43;1999.90;;;999.90;;
74821;SDS011;63353;48.702;8.884;2023-11-19T09:12:08;1999.90;;;999.90;;
74821;SDS011;63353;48.702;8.884;2023-11-19T09:14:34;1999.90;;;999.90;;
74821;SDS011;63353;48.702;8.884;2023-11-19T09:17:00;1999.90;;;999.90;;
74821;SDS011;63353;48.702;8.884;2023-11-19T09:19:25;1999.90;;;999.90;;
74821;SDS011;63353;48.702;8.884;2023-11-19T09:21:52;1999.90;;;999.90;;
74821;SDS011;63353;48.702;8.884;2023-11-19T09:24:18;1999.90;;;999.90;;
74821;SDS011;63353;48.702;8.884;2023-11-19T09:26:44;1999.90;;;999.90;;
74821;SDS011;63353;48.702;8.884;2023-11-19T09:29:10;540.40;;;348.60;;
74821;SDS011;63353;48.702;8.884;2023-11-19T09:31:37;1999.90;;;999.90;;
74821;SDS011;63353;48.702;8.884;2023-11-19T09:34:05;1999.90;;;999.90;;
74821;SDS011;63353;48.702;8.884;2023-11-19T09:36:30;996.10;;;632.47;;
74821;SDS011;63353;48.702;8.884;2023-11-19T09:38:56;611.80;;;351.43;;
74821;SDS011;63353;48.702;8.884;2023-11-19T09:41:22;1999.90;;;999.90;;
74821;SDS011;63353;48.702;8.884;2023-11-19T09:43:48;756.53;;;436.43;;
74821;SDS011;63353;48.702;8.884;2023-11-19T09:46:15;156.03;;;93.57;;
74821;SDS011;63353;48.702;8.884;2023-11-19T09:48:42;1999.90;;;999.90;;
74821;SDS011;63353;48.702;8.884;2023-11-19T09:51:09;1999.90;;;999.90;;
74821;SDS011;63353;48.702;8.884;2023-11-19T09:53:36;1999.90;;;999.90;;
74821;SDS011;63353;48.702;8.884;2023-11-19T09:56:03;614.67;;;470.57;;
74821;SDS011;63353;48.702;8.884;2023-11-19T09:58:30;761.37;;;608.63;;
74821;SDS011;63353;48.702;8.884;2023-11-19T10:00:59;649.17;;;600.53;;
74821;SDS011;63353;48.702;8.884;2023-11-19T10:03:34;696.57;;;650.17;;
74821;SDS011;63353;48.702;8.884;2023-11-19T10:06:03;1999.90;;;999.90;;
74821;SDS011;63353;48.702;8.884;2023-11-19T10:08:29;1999.90;;;999.90;;
74821;SDS011;63353;48.702;8.884;2023-11-19T10:10:55;1999.90;;;999.90;;
74821;SDS011;63353;48.702;8.884;2023-11-19T10:13:25;1999.90;;;999.90;;
74821;SDS011;63353;48.702;8.884;2023-11-19T10:15:52;1999.90;;;999.90;;
74821;SDS011;63353;48.702;8.884;2023-11-19T10:18:18;489.40;;;416.53;;
74821;SDS011;63353;48.702;8.884;2023-11-19T10:20:48;1999.90;;;999.90;;
74821;SDS011;63353;48.702;8.884;2023-11-19T10:23:14;1999.90;;;999.90;;
74821;SDS011;63353;48.702;8.884;2023-11-19T10:25:40;1999.90;;;999.90;;
74821;SDS011;63353;48.702;8.884;2023-11-19T10:28:05;1999.90;;;999.90;;
74821;SDS011;63353;48.702;8.884;2023-11-19T10:30:31;274.00;;;208.10;;
74821;SDS011;63353;48.702;8.884;2023-11-19T10:33:05;1999.90;;;999.90;;
74821;SDS011;63353;48.702;8.884;2023-11-19T10:35:36;441.40;;;352.57;;
74821;SDS011;63353;48.702;8.884;2023-11-19T10:38:17;1999.90;;;999.90;;
74821;SDS011;63353;48.702;8.884;2023-11-19T10:40:43;707.33;;;634.43;;
74821;SDS011;63353;48.702;8.884;2023-11-19T10:43:08;287.73;;;268.27;;
74821;SDS011;63353;48.702;8.884;2023-11-19T10:45:35;289.60;;;266.70;;
74821;SDS011;63353;48.702;8.884;2023-11-19T10:48:02;1179.47;;;999.90;;
74821;SDS011;63353;48.702;8.884;2023-11-19T10:50:34;248.33;;;228.60;;
74821;SDS011;63353;48.702;8.884;2023-11-19T10:53:02;261.27;;;242.43;;
74821;SDS011;63353;48.702;8.884;2023-11-19T10:55:30;199.77;;;185.13;;
74821;SDS011;63353;48.702;8.884;2023-11-19T10:58:00;268.00;;;248.67;;
74821;SDS011;63353;48.702;8.884;2023-11-19T11:00:51;189.83;;;179.60;;
74821;SDS011;63353;48.702;8.884;2023-11-19T11:03:19;92.40;;;88.73;;
74821;SDS011;63353;48.702;8.884;2023-11-19T11:05:47;74.33;;;71.53;;
74821;SDS011;63353;48.702;8.884;2023-11-19T11:08:14;96.40;;;92.70;;
74821;SDS011;63353;48.702;8.884;2023-11-19T11:10:44;112.70;;;108.33;;
74821;SDS011;63353;48.702;8.884;2023-11-19T11:13:16;103.33;;;99.33;;
74821;SDS011;63353;48.702;8.884;2023-11-19T11:15:43;85.33;;;81.90;;
74821;SDS011;63353;48.702;8.884;2023-11-19T11:18:11;51.40;;;49.40;;
74821;SDS011;63353;48.702;8.884;2023-11-19T11:20:38;121.80;;;117.17;;
74821;SDS011;63353;48.702;8.884;2023-11-19T11:25:48;94.17;;;90.13;;
74821;SDS011;63353;48.702;8.884;2023-11-19T11:28:43;59.03;;;56.73;;
74821;SDS011;63353;48.702;8.884;2023-11-19T11:36:25;45.60;;;43.00;;
74821;SDS011;63353;48.702;8.884;2023-11-19T11:38:52;44.47;;;42.50;;
74821;SDS011;63353;48.702;8.884;2023-11-19T11:41:23;148.57;;;141.67;;
74821;SDS011;63353;48.702;8.884;2023-11-19T11:43:51;1028.53;;;947.17;;
74821;SDS011;63353;48.702;8.884;2023-11-19T11:49:07;85.93;;;81.33;;
74821;SDS011;63353;48.702;8.884;2023-11-19T11:59:46;102.77;;;98.67;;
74821;SDS011;63353;48.702;8.884;2023-11-19T12:02:17;66.23;;;63.73;;
74821;SDS011;63353;48.702;8.884;2023-11-19T12:04:51;48.40;;;46.50;;
74821;SDS011;63353;48.702;8.884;2023-11-19T12:07:18;35.30;;;33.93;;
74821;SDS011;63353;48.702;8.884;2023-11-19T12:09:47;35.67;;;34.30;;
74821;SDS011;63353;48.702;8.884;2023-11-19T12:12:22;20.33;;;19.63;;
74821;SDS011;63353;48.702;8.884;2023-11-19T12:20:02;19.87;;;19.03;;
74821;SDS011;63353;48.702;8.884;2023-11-19T12:22:31;52.60;;;50.47;;
74821;SDS011;63353;48.702;8.884;2023-11-19T12:24:57;102.63;;;98.77;;
74821;SDS011;63353;48.702;8.884;2023-11-19T12:27:23;153.57;;;147.60;;
74821;SDS011;63353;48.702;8.884;2023-11-19T12:29:50;120.50;;;115.83;;
74821;SDS011;63353;48.702;8.884;2023-11-19T12:32:17;60.27;;;58.03;;
74821;SDS011;63353;48.702;8.884;2023-11-19T12:34:42;66.77;;;64.23;;
74821;SDS011;63353;48.702;8.884;2023-11-19T12:37:09;31.73;;;30.53;;
74821;SDS011;63353;48.702;8.884;2023-11-19T12:39:35;96.27;;;92.47;;
74821;SDS011;63353;48.702;8.884;2023-11-19T12:42:01;488.97;;;466.60;;
74821;SDS011;63353;48.702;8.884;2023-11-19T12:44:27;468.17;;;447.40;;
74821;SDS011;63353;48.702;8.884;2023-11-19T12:47:26;553.53;;;527.53;;
74821;SDS011;63353;48.702;8.884;2023-11-19T12:49:54;571.10;;;544.10;;
74821;SDS011;63353;48.702;8.884;2023-11-19T12:52:23;556.27;;;530.20;;
74821;SDS011;63353;48.702;8.884;2023-11-19T12:54:49;556.53;;;529.40;;
74821;SDS011;63353;48.702;8.884;2023-11-19T12:57:14;528.37;;;504.40;;
74821;SDS011;63353;48.702;8.884;2023-11-19T12:59:40;553.77;;;527.67;;
74821;SDS011;63353;48.702;8.884;2023-11-19T13:02:06;570.80;;;543.80;;
74821;SDS011;63353;48.702;8.884;2023-11-19T13:04:33;638.17;;;606.50;;
74821;SDS011;63353;48.702;8.884;2023-11-19T13:06:59;619.23;;;588.83;;
74821;SDS011;63353;48.702;8.884;2023-11-19T13:09:26;620.80;;;590.47;;
74821;SDS011;63353;48.702;8.884;2023-11-19T13:11:53;544.17;;;519.37;;
74821;SDS011;63353;48.702;8.884;2023-11-19T13:14:19;610.30;;;580.53;;
74821;SDS011;63353;48.702;8.884;2023-11-19T13:16:45;609.63;;;579.80;;
74821;SDS011;63353;48.702;8.884;2023-11-19T13:19:12;564.33;;;538.03;;
74821;SDS011;63353;48.702;8.884;2023-11-19T13:21:38;580.40;;;552.70;;
74821;SDS011;63353;48.702;8.884;2023-11-19T13:24:07;580.67;;;553.40;;
74821;SDS011;63353;48.702;8.884;2023-11-19T13:26:33;386.80;;;369.33;;
74821;SDS011;63353;48.702;8.884;2023-11-19T13:29:00;307.37;;;293.40;;
74821;SDS011;63353;48.702;8.884;2023-11-19T13:31:25;227.13;;;217.50;;
74821;SDS011;63353;48.702;8.884;2023-11-19T13:33:51;293.23;;;281.17;;
74821;SDS011;63353;48.702;8.884;2023-11-19T13:36:17;294.47;;;282.77;;
74821;SDS011;63353;48.702;8.884;2023-11-19T13:38:44;386.10;;;368.47;;
74821;SDS011;63353;48.702;8.884;2023-11-19T13:41:10;323.33;;;310.03;;
74821;SDS011;63353;48.702;8.884;2023-11-19T13:43:37;458.87;;;437.40;;
74821;SDS011;63353;48.702;8.884;2023-11-19T13:46:03;225.23;;;216.17;;
74821;SDS011;63353;48.702;8.884;2023-11-19T13:48:28;202.37;;;194.20;;
74821;SDS011;63353;48.702;8.884;2023-11-19T13:50:55;149.53;;;143.67;;
74821;SDS011;63353;48.702;8.884;2023-11-19T13:53:23;137.43;;;132.10;;
74821;SDS011;63353;48.702;8.884;2023-11-19T13:55:49;286.67;;;275.23;;
74821;SDS011;63353;48.702;8.884;2023-11-19T13:58:15;222.33;;;213.53;;
74821;SDS011;63353;48.702;8.884;2023-11-19T14:00:41;180.90;;;173.33;;
74821;SDS011;63353;48.702;8.884;2023-11-19T14:03:07;223.53;;;213.17;;
74821;SDS011;63353;48.702;8.884;2023-11-19T14:05:34;228.53;;;218.73;;
74821;SDS011;63353;48.702;8.884;2023-11-19T14:08:00;217.43;;;207.60;;
74821;SDS011;63353;48.702;8.884;2023-11-19T14:10:26;249.33;;;237.73;;
74821;SDS011;63353;48.702;8.884;2023-11-19T14:12:52;351.83;;;336.03;;
74821;SDS011;63353;48.702;8.884;2023-11-19T14:15:17;316.17;;;302.27;;